Time;durP1;ratioP1;P1;durP2;ratioP2;P2;SDS_P1;SDS_P2;PMS_P1;PMS_P2;Temp;Humidity;BMP_temperature;BMP_pressure;BME280_temperature;BME280_humidity;BME280_pressure;Samples;Min_cycle;Max_cycle;Signal;HPM_P1;HPM_P2
2023/06/14 00:01:59;;;;;;;5.80;4.40;;;12.80;99.90;;;;;;5116390;28;20216;-80
2023/06/14 00:04:26;;;;;;;7.03;4.90;;;12.90;99.90;;;;;;5115827;28;20228;-80
2023/06/14 00:06:53;;;;;;;6.97;4.17;;;12.90;99.90;;;;;;5116316;28;20211;-80
2023/06/14 00:09:20;;;;;;;5.83;4.47;;;12.80;99.90;;;;;;5116045;28;20311;-80
2023/06/14 00:11:47;;;;;;;5.30;4.03;;;12.70;99.90;;;;;;5115845;28;20201;-81
2023/06/14 00:14:15;;;;;;;8.03;4.47;;;12.70;99.90;;;;;;5116018;28;20296;-80
2023/06/14 00:16:42;;;;;;;6.33;4.00;;;13.00;99.90;;;;;;5116411;28;20204;-81
2023/06/14 00:19:10;;;;;;;6.13;4.20;;;12.80;99.90;;;;;;5116641;28;20205;-81
2023/06/14 00:21:37;;;;;;;5.80;4.20;;;12.80;99.90;;;;;;5112806;28;20272;-81
2023/06/14 00:24:05;;;;;;;6.80;4.27;;;12.90;99.90;;;;;;5102670;28;20668;-80
2023/06/14 00:26:32;;;;;;;8.03;4.20;;;13.10;99.90;;;;;;5115080;28;20197;-81
2023/06/14 00:28:59;;;;;;;4.77;3.80;;;13.10;99.90;;;;;;5115230;28;20606;-80
2023/06/14 00:31:27;;;;;;;6.97;3.90;;;13.00;99.90;;;;;;5115663;28;20653;-81
2023/06/14 00:33:54;;;;;;;4.97;4.33;;;12.90;99.90;;;;;;5115253;28;20223;-80
2023/06/14 00:36:20;;;;;;;8.90;4.37;;;13.00;99.90;;;;;;5115506;28;20686;-81
2023/06/14 00:38:47;;;;;;;4.63;3.87;;;12.90;99.90;;;;;;5115457;28;20557;-80
2023/06/14 00:41:14;;;;;;;6.43;4.17;;;12.70;99.90;;;;;;5115694;28;20205;-80
2023/06/14 00:43:41;;;;;;;5.67;4.47;;;12.70;99.90;;;;;;5115068;28;20255;-81
2023/06/14 00:46:07;;;;;;;6.23;4.00;;;12.50;99.90;;;;;;5114359;28;20239;-81
2023/06/14 00:48:37;;;;;;;5.80;4.17;;;12.40;99.90;;;;;;5115496;28;20239;-81
2023/06/14 00:51:04;;;;;;;5.50;4.13;;;12.40;99.90;;;;;;5115712;28;20649;-80
2023/06/14 00:53:33;;;;;;;5.67;3.90;;;12.40;99.90;;;;;;5115263;28;20225;-81
2023/06/14 00:56:01;;;;;;;4.57;3.87;;;12.60;99.90;;;;;;5115606;28;20205;-81
2023/06/14 00:58:28;;;;;;;6.93;3.87;;;12.50;99.90;;;;;;5115165;28;20204;-80
2023/06/14 01:00:56;;;;;;;5.60;4.40;;;12.50;99.90;;;;;;5115493;28;20559;-81
2023/06/14 01:03:23;;;;;;;5.87;4.23;;;12.50;99.90;;;;;;5115371;28;20223;-80
2023/06/14 01:05:55;;;;;;;5.30;3.93;;;12.50;99.90;;;;;;5114923;28;20209;-81
2023/06/14 01:08:32;;;;;;;7.30;4.17;;;12.50;99.90;;;;;;5115110;28;20224;-81
2023/06/14 01:11:06;;;;;;;7.87;4.30;;;12.50;99.90;;;;;;5115182;28;20671;-81
2023/06/14 01:13:35;;;;;;;5.90;4.30;;;12.30;99.90;;;;;;5114760;28;20217;-81
2023/06/14 01:16:03;;;;;;;5.93;4.47;;;12.30;99.90;;;;;;5115015;28;20717;-81
2023/06/14 01:18:30;;;;;;;6.60;4.13;;;12.30;99.90;;;;;;5115268;28;20661;-81
2023/06/14 01:20:58;;;;;;;6.50;4.13;;;12.40;99.90;;;;;;5115003;28;20635;-81
2023/06/14 01:23:32;;;;;;;5.77;4.30;;;12.30;99.90;;;;;;5115297;28;20220;-81
2023/06/14 01:26:02;;;;;;;6.10;3.93;;;12.30;99.90;;;;;;5114381;28;20200;-80
2023/06/14 01:28:31;;;;;;;4.90;3.97;;;12.00;99.90;;;;;;5114723;28;20221;-80
2023/06/14 01:31:03;;;;;;;7.20;4.03;;;11.50;99.90;;;;;;5114871;28;20631;-80
2023/06/14 01:33:33;;;;;;;5.30;4.53;;;11.70;99.90;;;;;;5114968;28;20293;-80
2023/06/14 01:36:02;;;;;;;7.90;4.40;;;11.60;99.90;;;;;;5114955;28;20569;-80
2023/06/14 01:38:31;;;;;;;5.97;4.53;;;11.30;99.90;;;;;;5115509;28;20404;-80
2023/06/14 01:41:00;;;;;;;5.83;4.50;;;11.40;99.90;;;;;;5114294;28;20205;-80
2023/06/14 01:43:28;;;;;;;5.53;4.17;;;11.30;99.90;;;;;;5106722;28;20221;-81
2023/06/14 01:45:56;;;;;;;7.57;4.70;;;11.30;99.90;;;;;;5114082;28;20700;-80
2023/06/14 01:48:24;;;;;;;7.00;4.60;;;11.30;99.90;;;;;;5112160;28;20217;-80
2023/06/14 01:50:51;;;;;;;6.87;4.27;;;11.40;99.90;;;;;;5113236;28;20215;-81
2023/06/14 01:53:18;;;;;;;8.37;4.70;;;11.50;99.90;;;;;;5114766;28;20229;-80
2023/06/14 01:55:48;;;;;;;5.30;4.50;;;11.60;99.90;;;;;;5114470;28;20567;-80
2023/06/14 01:58:16;;;;;;;5.80;4.80;;;11.90;99.90;;;;;;5114397;28;20200;-81
2023/06/14 02:00:45;;;;;;;5.40;4.43;;;11.90;99.90;;;;;;5115231;28;20258;-81
2023/06/14 02:03:12;;;;;;;5.40;4.10;;;11.50;99.90;;;;;;5114826;28;20225;-80
2023/06/14 02:05:40;;;;;;;6.00;4.70;;;11.30;99.90;;;;;;5114441;28;20209;-80
2023/06/14 02:08:07;;;;;;;7.63;4.40;;;11.20;99.90;;;;;;5115314;28;20209;-80
2023/06/14 02:10:33;;;;;;;6.30;4.70;;;10.90;99.90;;;;;;5118455;28;20201;-80
2023/06/14 02:13:02;;;;;;;5.93;4.73;;;10.80;99.90;;;;;;5118368;28;20207;-81
2023/06/14 02:15:33;;;;;;;6.50;4.97;;;11.10;99.90;;;;;;5118085;28;20558;-81
2023/06/14 02:18:01;;;;;;;7.60;4.70;;;11.20;99.90;;;;;;5118604;28;20197;-81
2023/06/14 02:20:28;;;;;;;5.00;4.40;;;11.30;99.90;;;;;;5111869;28;20231;-81
2023/06/14 02:22:55;;;;;;;6.63;4.53;;;11.30;99.90;;;;;;5118140;28;20204;-81
2023/06/14 02:25:22;;;;;;;6.07;4.00;;;11.20;99.90;;;;;;5117485;28;20205;-86
2023/06/14 02:27:49;;;;;;;8.67;4.73;;;11.30;99.90;;;;;;5118289;28;20687;-81
2023/06/14 02:30:17;;;;;;;6.70;4.70;;;11.30;99.90;;;;;;5118415;28;20220;-81
2023/06/14 02:32:44;;;;;;;8.50;4.63;;;11.40;99.90;;;;;;5118598;28;20201;-81
2023/06/14 02:35:10;;;;;;;5.27;4.30;;;11.40;99.90;;;;;;5110538;28;20711;-80
2023/06/14 02:37:37;;;;;;;8.50;5.67;;;11.30;99.90;;;;;;5118280;28;20678;-80
2023/06/14 02:40:05;;;;;;;6.30;5.03;;;11.50;99.90;;;;;;5118149;28;20211;-80
2023/06/14 02:42:32;;;;;;;6.43;4.33;;;11.60;99.90;;;;;;5118295;28;20205;-80
2023/06/14 02:45:00;;;;;;;7.70;4.70;;;11.50;99.90;;;;;;5117386;28;20217;-80
2023/06/14 02:47:28;;;;;;;6.43;4.30;;;11.40;99.90;;;;;;5117733;28;20196;-81
2023/06/14 02:49:55;;;;;;;6.23;4.13;;;11.40;99.90;;;;;;5117865;28;20209;-81
2023/06/14 02:52:22;;;;;;;6.13;4.60;;;11.40;99.90;;;;;;5117708;28;20299;-81
2023/06/14 02:54:48;;;;;;;6.33;4.53;;;11.50;99.90;;;;;;5117678;28;20220;-81
2023/06/14 02:57:16;;;;;;;7.10;4.40;;;11.30;99.90;;;;;;5117196;28;20220;-81
2023/06/14 02:59:42;;;;;;;7.63;4.40;;;11.30;99.90;;;;;;5117649;28;20207;-81
2023/06/14 03:02:10;;;;;;;6.50;4.53;;;11.40;99.90;;;;;;5117090;28;20294;-81
2023/06/14 03:04:38;;;;;;;7.37;4.07;;;11.40;99.90;;;;;;5116417;28;20228;-81
2023/06/14 03:07:09;;;;;;;6.47;4.63;;;11.50;99.90;;;;;;5115817;28;20207;-80
2023/06/14 03:09:37;;;;;;;7.93;4.70;;;11.60;99.90;;;;;;5116799;28;20221;-80
2023/06/14 03:12:04;;;;;;;4.87;4.03;;;11.60;99.90;;;;;;5117572;28;20209;-79
2023/06/14 03:14:31;;;;;;;5.50;4.40;;;11.70;99.90;;;;;;5116758;28;20309;-80
2023/06/14 03:16:58;;;;;;;5.60;3.77;;;11.80;99.90;;;;;;5116361;28;20581;-80
2023/06/14 03:19:26;;;;;;;5.20;3.80;;;11.90;99.90;;;;;;5116839;28;20235;-80
2023/06/14 03:21:56;;;;;;;3.97;3.67;;;11.70;99.90;;;;;;5116086;28;20201;-82
2023/06/14 03:24:23;;;;;;;5.07;3.60;;;11.40;99.90;;;;;;5116912;28;20693;-80
2023/06/14 03:26:50;;;;;;;4.33;3.47;;;11.10;99.90;;;;;;5116672;28;20303;-80
2023/06/14 03:29:17;;;;;;;7.07;3.80;;;11.00;99.90;;;;;;5116706;28;20243;-80
2023/06/14 03:31:58;;;;;;;4.30;3.90;;;11.20;99.90;;;;;;5116885;28;20292;-80
2023/06/14 03:34:25;;;;;;;7.10;4.87;;;11.00;99.90;;;;;;5115698;28;20799;-81
2023/06/14 03:36:54;;;;;;;5.27;4.20;;;10.50;99.90;;;;;;5115892;28;20231;-80
2023/06/14 03:39:21;;;;;;;5.03;4.30;;;10.60;99.90;;;;;;5116264;28;20264;-80
2023/06/14 03:41:48;;;;;;;6.37;4.23;;;10.90;99.90;;;;;;5116505;28;20246;-80
2023/06/14 03:44:17;;;;;;;5.93;4.10;;;11.20;99.90;;;;;;5116583;28;20221;-80
2023/06/14 03:46:44;;;;;;;6.57;4.27;;;11.40;99.90;;;;;;5116247;28;20227;-80
2023/06/14 03:49:11;;;;;;;6.87;4.57;;;11.70;99.90;;;;;;5117065;28;20259;-80
2023/06/14 03:51:39;;;;;;;6.13;4.00;;;12.00;99.90;;;;;;5116061;28;20213;-81
2023/06/14 03:54:07;;;;;;;7.10;4.23;;;12.20;99.90;;;;;;5116319;28;20256;-80
2023/06/14 03:56:34;;;;;;;6.07;4.07;;;12.40;99.90;;;;;;5115430;28;20213;-80
2023/06/14 03:59:02;;;;;;;5.73;4.27;;;12.30;99.90;;;;;;5115583;28;20216;-80
2023/06/14 04:01:29;;;;;;;6.90;4.67;;;12.60;99.90;;;;;;5116449;28;20216;-80
2023/06/14 04:03:57;;;;;;;6.13;4.00;;;12.60;99.90;;;;;;5116174;28;20632;-81
2023/06/14 04:06:31;;;;;;;7.37;4.07;;;12.60;99.90;;;;;;5115310;28;20209;-80
2023/06/14 04:09:03;;;;;;;5.60;4.03;;;12.70;99.90;;;;;;5115457;28;20197;-80
2023/06/14 04:11:32;;;;;;;6.87;4.13;;;13.70;99.90;;;;;;5115403;28;20201;-79
2023/06/14 04:13:59;;;;;;;7.23;3.70;;;15.60;99.90;;;;;;5115758;28;20220;-81
2023/06/14 04:16:26;;;;;;;4.33;3.60;;;16.00;99.90;;;;;;5115728;28;20201;-80
2023/06/14 04:18:54;;;;;;;5.67;3.80;;;16.00;99.90;;;;;;5115909;28;20209;-80
2023/06/14 04:21:23;;;;;;;6.00;3.70;;;15.80;99.90;;;;;;5115495;28;20204;-81
2023/06/14 04:23:55;;;;;;;4.82;3.25;;;15.70;99.90;;;;;;5115707;28;20229;-81
2023/06/14 04:26:23;;;;;;;5.80;3.70;;;14.60;99.90;;;;;;5115555;28;20215;-80
2023/06/14 04:28:51;;;;;;;5.07;3.78;;;14.10;99.90;;;;;;5107556;28;20624;-81
2023/06/14 04:31:18;;;;;;;9.57;3.97;;;14.20;99.90;;;;;;5107099;28;20864;-80
2023/06/14 04:33:46;;;;;;;7.37;4.20;;;14.00;99.90;;;;;;5114231;28;20262;-80
2023/06/14 04:36:13;;;;;;;7.47;3.67;;;14.10;99.90;;;;;;5114564;28;20209;-80
2023/06/14 04:38:41;;;;;;;5.47;3.90;;;14.30;99.90;;;;;;5114692;28;20208;-81
2023/06/14 04:41:11;;;;;;;4.70;3.60;;;14.20;99.90;;;;;;5114962;28;20292;-80
2023/06/14 04:43:38;;;;;;;5.83;4.00;;;13.90;99.90;;;;;;5115590;28;20307;-81
2023/06/14 04:46:10;;;;;;;7.17;4.20;;;13.80;99.90;;;;;;5115584;28;20254;-81
2023/06/14 04:48:40;;;;;;;5.23;3.47;;;13.90;99.90;;;;;;5115671;28;20201;-80
2023/06/14 04:51:07;;;;;;;4.00;3.60;;;13.90;99.90;;;;;;5115490;28;20228;-81
2023/06/14 04:53:34;;;;;;;6.47;3.73;;;14.00;99.90;;;;;;5115182;28;20661;-80
2023/06/14 04:56:02;;;;;;;5.70;3.70;;;14.10;99.90;;;;;;5115209;28;20204;-81
2023/06/14 04:58:30;;;;;;;8.57;3.70;;;14.20;99.90;;;;;;5115666;28;20212;-80
2023/06/14 05:00:58;;;;;;;4.03;3.40;;;14.30;99.90;;;;;;5115669;28;20196;-81
2023/06/14 05:03:27;;;;;;;7.40;3.57;;;14.30;99.90;;;;;;5115090;28;20236;-80
2023/06/14 05:05:54;;;;;;;4.33;3.60;;;14.30;99.90;;;;;;5115534;28;20656;-80
2023/06/14 05:08:23;;;;;;;5.10;3.50;;;14.50;99.90;;;;;;5116033;28;20197;-80
2023/06/14 05:10:50;;;;;;;8.90;3.70;;;14.70;99.90;;;;;;5115278;28;20308;-81
2023/06/14 05:13:17;;;;;;;4.17;3.50;;;14.70;99.90;;;;;;5115339;28;20231;-81
2023/06/14 05:15:44;;;;;;;4.47;3.30;;;14.80;99.90;;;;;;5115248;28;20280;-80
2023/06/14 05:18:11;;;;;;;5.47;3.53;;;15.00;99.90;;;;;;5114861;28;20622;-79
2023/06/14 05:20:39;;;;;;;6.53;3.73;;;15.00;99.90;;;;;;5115252;28;20203;-80
2023/06/14 05:23:06;;;;;;;5.40;3.40;;;15.10;99.90;;;;;;5115176;28;20213;-81
2023/06/14 05:25:33;;;;;;;3.72;3.30;;;15.10;99.90;;;;;;5114269;28;20220;-80
2023/06/14 05:28:00;;;;;;;6.03;3.22;;;15.00;99.90;;;;;;5114624;28;20201;-81
2023/06/14 05:30:29;;;;;;;4.07;3.03;;;15.00;99.90;;;;;;5115270;28;20251;-80
2023/06/14 05:32:56;;;;;;;6.50;3.60;;;15.10;99.90;;;;;;5114879;28;20208;-80
2023/06/14 05:35:23;;;;;;;2.83;2.63;;;15.40;99.90;;;;;;5115174;28;20193;-80
2023/06/14 05:37:51;;;;;;;5.70;3.22;;;16.00;99.90;;;;;;5114324;28;20208;-81
2023/06/14 05:40:18;;;;;;;3.30;2.85;;;16.90;99.90;;;;;;5114627;28;20205;-80
2023/06/14 05:42:45;;;;;;;3.17;2.65;;;17.30;99.90;;;;;;5114899;28;20292;-80
2023/06/14 05:45:11;;;;;;;5.85;4.22;;;16.60;99.90;;;;;;5116082;28;20233;-81
2023/06/14 05:47:38;;;;;;;4.68;2.65;;;16.10;99.90;;;;;;5113716;28;20200;-81
2023/06/14 05:50:06;;;;;;;5.05;3.33;;;16.20;99.90;;;;;;5115992;28;20232;-80
2023/06/14 05:52:33;;;;;;;6.03;3.10;;;16.40;99.90;;;;;;5113501;28;20653;-80
2023/06/14 05:55:02;;;;;;;4.47;2.70;;;16.60;99.90;;;;;;5117745;28;20277;-80
2023/06/14 05:57:28;;;;;;;5.57;3.30;;;16.40;99.90;;;;;;5117944;28;20649;-80
2023/06/14 05:59:55;;;;;;;2.92;2.70;;;16.20;99.90;;;;;;5118209;28;20197;-80
2023/06/14 06:02:22;;;;;;;5.22;3.28;;;15.90;99.90;;;;;;5117790;28;20204;-80
2023/06/14 06:04:49;;;;;;;3.95;3.00;;;16.10;99.90;;;;;;5118007;28;20225;-80
2023/06/14 06:07:16;;;;;;;4.07;2.90;;;16.00;99.90;;;;;;5117072;28;20201;-81
2023/06/14 06:09:43;;;;;;;6.15;3.50;;;16.20;99.90;;;;;;5118054;28;20227;-80
2023/06/14 06:12:11;;;;;;;4.80;3.13;;;16.40;99.90;;;;;;5118309;28;20204;-80
2023/06/14 06:14:38;;;;;;;10.70;3.20;;;16.30;99.90;;;;;;5117830;28;20225;-80
2023/06/14 06:17:06;;;;;;;3.88;3.00;;;16.40;99.90;;;;;;5117785;28;20200;-80
2023/06/14 06:19:33;;;;;;;5.32;3.10;;;16.70;99.90;;;;;;5118466;28;20220;-80
2023/06/14 06:21:59;;;;;;;5.97;3.55;;;16.50;99.90;;;;;;5118456;28;20205;-81
2023/06/14 06:24:26;;;;;;;3.53;3.15;;;16.70;99.90;;;;;;5117746;28;20699;-81
2023/06/14 06:26:53;;;;;;;3.95;3.45;;;16.80;99.90;;;;;;5117137;28;20566;-80
2023/06/14 06:29:22;;;;;;;6.72;3.55;;;16.80;99.90;;;;;;5117620;28;20197;-80
2023/06/14 06:31:49;;;;;;;3.88;2.80;;;16.60;99.90;;;;;;5097698;28;20231;-80
2023/06/14 06:34:15;;;;;;;6.03;3.92;;;16.50;99.90;;;;;;5117143;28;20221;-80
2023/06/14 06:36:43;;;;;;;3.67;3.33;;;16.80;99.90;;;;;;5117316;28;20675;-79
2023/06/14 06:39:10;;;;;;;43.92;5.88;;;16.70;99.90;;;;;;5117185;28;20709;-80
2023/06/14 06:41:39;;;;;;;4.57;3.30;;;16.70;99.90;;;;;;5117577;28;20254;-81
2023/06/14 06:44:06;;;;;;;4.22;3.38;;;16.80;99.90;;;;;;5116783;28;20759;-79
2023/06/14 06:46:34;;;;;;;3.50;3.20;;;16.80;99.90;;;;;;5117517;28;20203;-80
2023/06/14 06:49:01;;;;;;;4.90;3.05;;;16.70;99.90;;;;;;5116896;28;20232;-80
2023/06/14 06:51:28;;;;;;;3.67;3.15;;;16.80;99.90;;;;;;5116899;28;20224;-79
2023/06/14 06:53:55;;;;;;;3.55;3.25;;;16.80;99.90;;;;;;5117078;28;20739;-79
2023/06/14 06:56:23;;;;;;;4.90;3.55;;;16.80;99.90;;;;;;5116209;28;20665;-80
2023/06/14 06:58:49;;;;;;;4.68;2.70;;;16.80;99.90;;;;;;5117219;28;20200;-80
2023/06/14 07:01:16;;;;;;;4.07;3.20;;;17.00;99.90;;;;;;5116733;28;20529;-80
2023/06/14 07:03:45;;;;;;;7.28;3.10;;;17.00;99.90;;;;;;5117299;28;20221;-80
2023/06/14 07:06:12;;;;;;;5.82;3.10;;;17.00;99.90;;;;;;5116813;28;20205;-80
2023/06/14 07:08:39;;;;;;;3.50;2.88;;;17.00;99.90;;;;;;5116865;28;20309;-81
2023/06/14 07:11:06;;;;;;;3.33;2.88;;;17.10;99.90;;;;;;5116636;28;20239;-81
2023/06/14 07:13:33;;;;;;;4.50;2.97;;;17.20;99.90;;;;;;5116796;28;20764;-79
2023/06/14 07:16:01;;;;;;;3.58;2.60;;;17.10;99.90;;;;;;5116155;28;20215;-80
2023/06/14 07:18:27;;;;;;;5.28;2.78;;;17.10;99.90;;;;;;5116326;28;20200;-81
2023/06/14 07:20:56;;;;;;;4.50;2.90;;;17.30;99.90;;;;;;5116758;28;20201;-80
2023/06/14 07:23:22;;;;;;;4.95;2.85;;;17.30;99.90;;;;;;5116531;28;20244;-79
2023/06/14 07:25:49;;;;;;;3.65;2.70;;;17.50;99.90;;;;;;5116035;28;20215;-80
2023/06/14 07:28:17;;;;;;;3.45;2.90;;;17.50;99.90;;;;;;5116288;28;20250;-80
2023/06/14 07:30:44;;;;;;;5.40;3.10;;;17.40;99.90;;;;;;5116548;28;20220;-80
2023/06/14 07:33:12;;;;;;;4.25;2.95;;;17.60;99.90;;;;;;5116298;28;20212;-80
2023/06/14 07:35:39;;;;;;;3.45;2.95;;;17.50;99.90;;;;;;5116164;28;20262;-80
2023/06/14 07:38:07;;;;;;;3.08;2.70;;;17.60;99.90;;;;;;5116604;28;20657;-80
2023/06/14 07:40:33;;;;;;;5.45;2.97;;;17.50;99.90;;;;;;5117041;28;20288;-80
2023/06/14 07:43:01;;;;;;;2.95;2.58;;;17.60;99.90;;;;;;5116289;28;20638;-79
2023/06/14 07:45:28;;;;;;;3.22;2.92;;;17.80;99.90;;;;;;5116729;28;20204;-80
2023/06/14 07:47:55;;;;;;;3.30;2.60;;;17.60;99.90;;;;;;5117040;28;20200;-80
2023/06/14 07:50:22;;;;;;;3.25;2.95;;;17.80;99.90;;;;;;5117031;28;20220;-80
2023/06/14 07:52:49;;;;;;;2.97;2.67;;;17.90;99.90;;;;;;5116896;28;20213;-80
2023/06/14 07:55:17;;;;;;;2.78;2.55;;;17.70;99.90;;;;;;5116163;28;20224;-81
2023/06/14 07:57:45;;;;;;;3.72;2.53;;;17.70;99.90;;;;;;5116502;28;20205;-80
2023/06/14 08:00:15;;;;;;;3.13;2.60;;;18.00;99.90;;;;;;5116331;28;20226;-81
2023/06/14 08:02:42;;;;;;;3.67;2.72;;;18.00;99.90;;;;;;5116570;28;20203;-80
2023/06/14 08:05:11;;;;;;;2.80;2.60;;;17.90;99.90;;;;;;5116220;28;20227;-80
2023/06/14 08:07:38;;;;;;;2.63;2.17;;;18.00;99.90;;;;;;5116487;28;20204;-80
2023/06/14 08:10:05;;;;;;;4.38;2.28;;;17.90;99.90;;;;;;5116550;28;20212;-81
2023/06/14 08:12:33;;;;;;;3.83;2.63;;;18.00;99.90;;;;;;5116040;28;20208;-81
2023/06/14 08:15:01;;;;;;;3.67;2.58;;;17.90;99.90;;;;;;5116068;28;20596;-80
2023/06/14 08:17:27;;;;;;;3.38;2.28;;;17.80;99.90;;;;;;5116374;28;20205;-80
2023/06/14 08:19:57;;;;;;;3.28;2.72;;;17.90;99.90;;;;;;5116418;28;20288;-79
2023/06/14 08:22:24;;;;;;;4.10;2.75;;;18.00;99.90;;;;;;5115934;28;20275;-80
2023/06/14 08:24:51;;;;;;;3.20;2.47;;;18.00;99.90;;;;;;5116115;28;20220;-80
2023/06/14 08:27:18;;;;;;;3.60;2.90;;;17.90;99.90;;;;;;5116322;28;20228;-80
2023/06/14 08:29:46;;;;;;;2.70;2.50;;;18.00;99.90;;;;;;5116181;28;20321;-80
2023/06/14 08:32:13;;;;;;;2.42;2.22;;;18.10;99.90;;;;;;5115740;28;20275;-80
2023/06/14 08:34:40;;;;;;;2.92;2.60;;;18.10;99.90;;;;;;5115891;28;20221;-79
2023/06/14 08:37:07;;;;;;;2.95;2.50;;;18.30;99.90;;;;;;5115614;28;20205;-80
2023/06/14 08:39:34;;;;;;;3.65;2.47;;;18.20;99.90;;;;;;5116148;28;20201;-80
2023/06/14 08:42:02;;;;;;;3.03;2.53;;;18.50;99.90;;;;;;5115612;28;20228;-80
2023/06/14 08:44:29;;;;;;;2.97;2.72;;;18.30;99.90;;;;;;5115432;28;20232;-80
2023/06/14 08:46:57;;;;;;;3.38;2.60;;;18.20;99.90;;;;;;5114694;28;20201;-80
2023/06/14 08:49:26;;;;;;;2.60;2.40;;;18.20;99.90;;;;;;5115722;28;20625;-80
2023/06/14 08:51:58;;;;;;;3.33;3.03;;;18.50;99.90;;;;;;5115041;28;20220;-80
2023/06/14 08:54:27;;;;;;;4.43;2.40;;;18.80;99.90;;;;;;5115782;28;20250;-80
2023/06/14 08:56:57;;;;;;;3.67;2.55;;;19.30;99.90;;;;;;5115613;28;20209;-80
2023/06/14 08:59:25;;;;;;;2.63;2.42;;;19.40;99.90;;;;;;5115531;28;20653;-80
2023/06/14 09:01:54;;;;;;;4.25;2.40;;;19.50;91.90;;;;;;5115837;28;20204;-80
2023/06/14 09:04:22;;;;;;;3.38;3.05;;;19.40;99.90;;;;;;5115846;28;20753;-80
2023/06/14 09:06:52;;;;;;;2.55;2.35;;;19.10;70.20;;;;;;5114946;28;20196;-80
2023/06/14 09:09:19;;;;;;;6.00;2.60;;;19.30;99.90;;;;;;5115876;28;20197;-79
2023/06/14 09:11:47;;;;;;;4.57;2.60;;;19.70;52.60;;;;;;5115198;28;20220;-80
2023/06/14 09:14:14;;;;;;;3.90;2.35;;;20.00;99.90;;;;;;5116100;28;20221;-80
2023/06/14 09:16:41;;;;;;;2.78;2.58;;;20.40;1.00;;;;;;5107204;28;20261;-80
2023/06/14 09:19:08;;;;;;;5.13;2.45;;;20.30;1.00;;;;;;5117512;28;20193;-81
2023/06/14 09:21:37;;;;;;;3.15;2.35;;;20.50;1.00;;;;;;5108692;28;20540;-81
2023/06/14 09:24:05;;;;;;;2.38;1.90;;;20.90;1.00;;;;;;5118282;28;20209;-80
2023/06/14 09:26:32;;;;;;;3.42;2.17;;;21.10;1.00;;;;;;5118948;28;20204;-80
2023/06/14 09:28:59;;;;;;;3.05;2.53;;;21.20;1.00;;;;;;5119558;28;20576;-80
2023/06/14 09:31:31;;;;;;;2.30;2.10;;;21.30;1.00;;;;;;5118691;28;20229;-81
2023/06/14 09:33:58;;;;;;;2.72;2.25;;;21.30;1.00;;;;;;5117889;28;20219;-80
2023/06/14 09:36:27;;;;;;;2.50;2.30;;;21.00;1.00;;;;;;5118722;28;20209;-80
2023/06/14 09:38:56;;;;;;;3.20;2.60;;;21.30;1.00;;;;;;5119127;28;20205;-81
2023/06/14 09:41:32;;;;;;;3.22;2.28;;;21.30;1.00;;;;;;5118910;28;20220;-80
2023/06/14 09:44:02;;;;;;;2.63;2.42;;;21.40;99.90;;;;;;5118155;28;20221;-81
2023/06/14 09:46:29;;;;;;;5.03;2.47;;;21.50;1.00;;;;;;5118209;28;20293;-80
2023/06/14 09:48:56;;;;;;;2.50;2.30;;;21.60;1.00;;;;;;5118593;28;20197;-80
2023/06/14 09:51:24;;;;;;;2.83;2.35;;;22.00;1.00;;;;;;5118156;28;20715;-80
2023/06/14 09:53:51;;;;;;;2.40;2.20;;;21.80;1.00;;;;;;5118228;28;20300;-80
2023/06/14 09:56:24;;;;;;;2.38;2.17;;;21.40;1.00;;;;;;5118711;28;20570;-80
2023/06/14 09:58:56;;;;;;;2.75;2.53;;;21.80;99.90;;;;;;5119150;28;20719;-80
2023/06/14 10:01:24;;;;;;;3.72;2.30;;;21.30;99.90;;;;;;5118914;28;20208;-81
2023/06/14 10:03:56;;;;;;;2.42;2.22;;;21.50;99.90;;;;;;5119033;28;20228;-80
2023/06/14 10:06:25;;;;;;;2.75;2.50;;;21.80;1.00;;;;;;5118559;28;20220;-80
2023/06/14 10:08:57;;;;;;;3.08;2.13;;;21.80;99.90;;;;;;5119223;28;20204;-80
2023/06/14 10:11:27;;;;;;;3.20;2.58;;;21.90;54.90;;;;;;5118115;28;20253;-81
2023/06/14 10:13:55;;;;;;;2.83;2.35;;;21.70;99.90;;;;;;5118364;28;20221;-80
2023/06/14 10:16:27;;;;;;;2.67;2.35;;;21.80;1.00;;;;;;5118194;28;20204;-81
2023/06/14 10:19:03;;;;;;;2.75;2.55;;;21.70;99.90;;;;;;5119075;28;20215;-81
2023/06/14 10:21:56;;;;;;;2.60;2.40;;;21.90;1.00;;;;;;5118571;28;20201;-81
2023/06/14 10:24:34;;;;;;;3.13;2.70;;;22.20;94.00;;;;;;5118628;28;20252;-80
2023/06/14 10:27:02;;;;;;;3.92;2.45;;;21.90;39.00;;;;;;5118680;28;20317;-81
2023/06/14 10:29:31;;;;;;;3.35;2.63;;;21.80;1.00;;;;;;5117983;28;20201;-81
2023/06/14 10:31:59;;;;;;;3.33;2.25;;;22.00;1.00;;;;;;5118467;28;20677;-80
2023/06/14 10:34:26;;;;;;;2.92;2.40;;;22.40;1.00;;;;;;5118300;28;20220;-80
2023/06/14 10:37:04;;;;;;;2.70;2.50;;;22.60;99.90;;;;;;5117799;28;20589;-79
2023/06/14 10:39:31;;;;;;;3.42;2.35;;;22.40;1.00;;;;;;5117812;28;20192;-79
2023/06/14 10:42:02;;;;;;;3.97;2.83;;;21.40;1.00;;;;;;5118253;28;20279;-79
2023/06/14 10:44:43;;;;;;;4.50;2.60;;;21.70;1.00;;;;;;5118099;28;20228;-80
2023/06/14 10:47:21;;;;;;;3.40;2.38;;;21.80;1.00;;;;;;5095811;28;20212;-80
2023/06/14 10:49:53;;;;;;;4.35;2.50;;;22.10;1.00;;;;;;5103462;28;20677;-81
2023/06/14 10:52:23;;;;;;;2.88;2.55;;;22.00;1.00;;;;;;5115938;28;20221;-79
2023/06/14 10:55:11;;;;;;;3.47;2.60;;;22.00;1.00;;;;;;5117230;28;20224;-80
2023/06/14 10:57:39;;;;;;;4.78;2.97;;;22.30;1.00;;;;;;5118534;28;20208;-80
2023/06/14 11:00:13;;;;;;;5.40;2.50;;;21.90;99.90;;;;;;5118957;28;20673;-81
2023/06/14 11:03:20;;;;;;;4.15;2.80;;;22.30;1.00;;;;;;5117919;28;20647;-78
2023/06/14 11:05:52;;;;;;;5.57;2.90;;;22.30;1.00;;;;;;5086709;28;20205;-79
2023/06/14 11:08:46;;;;;;;3.45;2.58;;;23.00;1.00;;;;;;5117329;28;20584;-80
2023/06/14 11:11:14;;;;;;;3.25;2.90;;;23.10;99.90;;;;;;5116723;28;20197;-80
2023/06/14 11:13:45;;;;;;;2.80;2.55;;;23.20;99.90;;;;;;5116478;28;20696;-81
2023/06/14 11:16:14;;;;;;;4.00;3.00;;;22.50;1.00;;;;;;5116105;28;20266;-80
2023/06/14 11:18:42;;;;;;;4.28;2.90;;;22.40;1.00;;;;;;5116494;28;20200;-80
2023/06/14 11:21:09;;;;;;;3.65;2.72;;;22.40;1.00;;;;;;5116085;28;20583;-80
2023/06/14 11:23:36;;;;;;;3.65;2.90;;;22.30;99.90;;;;;;5115805;28;20277;-81
2023/06/14 11:26:04;;;;;;;3.22;2.67;;;22.20;1.00;;;;;;5115659;28;20205;-80
2023/06/14 11:28:38;;;;;;;3.90;2.90;;;22.20;1.00;;;;;;5116317;28;20734;-80
2023/06/14 11:31:05;;;;;;;2.75;2.55;;;22.40;1.00;;;;;;5116133;28;20212;-81
2023/06/14 11:33:34;;;;;;;2.95;2.70;;;22.40;1.00;;;;;;5116096;28;20244;-83
2023/06/14 11:36:04;;;;;;;3.28;2.97;;;22.20;99.90;;;;;;5114929;28;20227;-82
2023/06/14 11:38:31;;;;;;;4.50;3.10;;;22.10;1.00;;;;;;5114302;28;20197;-81
2023/06/14 11:41:01;;;;;;;4.13;2.90;;;22.40;1.00;;;;;;5114238;28;20215;-82
2023/06/14 11:43:29;;;;;;;4.50;3.10;;;22.10;1.00;;;;;;5115466;28;20212;-79
2023/06/14 11:45:55;;;;;;;5.88;3.08;;;21.90;99.90;;;;;;5094636;28;20209;-80
2023/06/14 11:48:22;;;;;;;5.00;3.35;;;22.20;1.00;;;;;;5100660;28;20199;-77
2023/06/14 11:50:52;;;;;;;3.10;2.80;;;22.40;1.00;;;;;;5113321;28;20193;-77
2023/06/14 11:53:19;;;;;;;3.30;3.00;;;22.50;1.00;;;;;;5114761;28;20227;-78
2023/06/14 11:55:47;;;;;;;4.75;3.47;;;22.00;99.90;;;;;;5106545;28;20276;-77
2023/06/14 11:58:14;;;;;;;3.38;3.00;;;21.90;99.90;;;;;;5114690;28;20193;-77
2023/06/14 12:00:41;;;;;;;5.40;2.92;;;21.90;1.00;;;;;;5115018;28;20205;-77
2023/06/14 12:03:16;;;;;;;3.78;3.00;;;22.00;1.00;;;;;;5153721;27;20977;-77
2023/06/14 12:05:43;;;;;;;4.90;3.08;;;22.40;1.00;;;;;;5150566;27;20195;-77
2023/06/14 12:08:14;;;;;;;4.65;3.67;;;22.60;1.00;;;;;;5117605;27;20199;-77
2023/06/14 12:10:43;;;;;;;5.60;3.13;;;22.40;1.00;;;;;;5065544;27;20694;-79
2023/06/14 12:13:10;;;;;;;5.30;2.95;;;22.50;99.90;;;;;;5116264;27;20192;-77
2023/06/14 12:15:37;;;;;;;4.93;3.05;;;22.50;1.00;;;;;;5066950;27;20202;-77
2023/06/14 12:18:08;;;;;;;3.38;3.08;;;22.80;1.00;;;;;;5131416;27;20195;-77
2023/06/14 12:20:36;;;;;;;4.68;2.55;;;23.00;1.00;;;;;;5150554;27;20207;-77
2023/06/14 12:23:04;;;;;;;5.40;3.15;;;23.10;1.00;;;;;;5150913;27;20211;-77
2023/06/14 12:25:33;;;;;;;3.08;2.88;;;23.00;1.00;;;;;;5139762;27;20199;-77
2023/06/14 12:28:01;;;;;;;5.20;3.00;;;22.50;99.90;;;;;;5092629;27;20192;-77
2023/06/14 12:30:28;;;;;;;4.10;2.90;;;22.50;1.00;;;;;;5142135;27;20300;-77
2023/06/14 12:32:54;;;;;;;4.22;3.28;;;23.30;1.00;;;;;;5065432;27;20191;-77
2023/06/14 12:35:21;;;;;;;5.53;3.63;;;23.50;99.90;;;;;;5089757;27;20211;-77
2023/06/14 12:37:49;;;;;;;5.65;3.25;;;23.80;1.00;;;;;;5045623;28;20227;-76
2023/06/14 12:40:16;;;;;;;3.58;3.28;;;24.10;99.90;;;;;;5130907;27;20279;-77
2023/06/14 12:42:43;;;;;;;3.92;3.47;;;23.90;99.90;;;;;;5058907;28;20556;-77
2023/06/14 12:45:11;;;;;;;5.82;3.88;;;23.20;99.90;;;;;;5040065;28;20237;-77
2023/06/14 12:47:37;;;;;;;6.13;3.40;;;23.00;1.00;;;;;;5032557;27;20230;-77
2023/06/14 12:50:05;;;;;;;6.80;3.53;;;23.00;1.00;;;;;;5050478;27;20215;-76
2023/06/14 12:52:35;;;;;;;5.35;3.58;;;22.70;1.00;;;;;;5032236;27;20640;-77
2023/06/14 12:55:04;;;;;;;5.50;3.33;;;22.60;1.00;;;;;;5033113;27;20223;-77